Natures Way Challenger — WDF7294 — position and weather

sailwx.info

Track history (hours):
 
Tides and Currents Weather Stations Pressure Air Temp Water Temp Dewpoint Dewpoint Depression Visibility Wind Speed Wind Dir Waves Ship Positions

Natures Way Challenger

Owner: Natures Way Marine, LLC, Theodore, AL. More information available from US FCC via Universal Licensing System and Coast Guard Vessel Documentation Center.

Last reported at 2015-Mar-27 23:25 UTC. Time now 2015-Mar-29 06:11 UTC.
Position N 29°54' W 089°60'.

Length 14 m.

Type: Towing. MMSI: 367483050.

Date/timePositionNaut miles runAvg speedWind from/ knotsBaromVisibWave heightAir tempDewpointWater temp
2015-Mar-27 23:25N 29°54' W 089°60'5 0.1
2015-Mar-26 14:12N 29°54' W 090°05'30 1.8
2015-Mar-25 21:32N 29°34' W 090°30'5 3.5
2015-Mar-25 20:12N 29°35' W 090°35'2 3.4
2015-Mar-25 19:30N 29°35' W 090°38'3 3.5
2015-Mar-25 18:33N 29°37' W 090°42'3 2.7
2015-Mar-25 17:33N 29°34' W 090°43'3 3.1
2015-Mar-25 16:33N 29°32' W 090°46'4 4.1
2015-Mar-25 15:33N 29°32' W 090°50'  
2015-Mar-23 06:30N 29°32' W 090°51'5 4.9
2015-Mar-23 05:33N 29°32' W 090°46'3 3.4
2015-Mar-23 04:33N 29°34' W 090°43'3 2.8
2015-Mar-23 03:33N 29°37' W 090°42'0 0.0
2015-Mar-23 02:33N 29°37' W 090°42'0 0.0
2015-Mar-23 01:33N 29°37' W 090°42'0 0.0
2015-Mar-23 00:33N 29°37' W 090°42'0 0.0
2015-Mar-22 23:33N 29°37' W 090°42'0 0.0
2015-Mar-22 22:33N 29°37' W 090°42'0 0.0
2015-Mar-22 21:33N 29°37' W 090°42'0 0.0
2015-Mar-22 20:33N 29°37' W 090°42'0 0.0
2015-Mar-22 19:33N 29°37' W 090°42'0 0.0
2015-Mar-22 18:33N 29°37' W 090°42'0 0.0
2015-Mar-22 17:33N 29°37' W 090°42'0 0.1
2015-Mar-22 16:33N 29°37' W 090°42'1 1.4
2015-Mar-22 15:33N 29°36' W 090°41'4 4.4
2015-Mar-22 14:33N 29°35' W 090°36'31 3.7
2015-Mar-22 06:22N 29°48' W 090°04'  
2015-Mar-19 12:18N 29°54' W 090°05'0 0.0
2015-Mar-19 11:31N 29°54' W 090°05'0 0.0
2015-Mar-19 10:33N 29°54' W 090°05'0 0.0
2015-Mar-19 09:32N 29°54' W 090°05'5 2.1
2015-Mar-19 07:05N 29°55' W 089°59'  
Track history (hours):
 
Tides and Currents Weather Stations Pressure Air Temp Water Temp Dewpoint Dewpoint Depression Visibility Wind Speed Wind Dir Waves Ship Positions

Natures Way Challenger

Owner: Natures Way Marine, LLC, Theodore, AL. More information available from US FCC via Universal Licensing System and Coast Guard Vessel Documentation Center.

Last reported at 2015-Mar-27 23:25 UTC. Time now 2015-Mar-29 06:11 UTC.
Position N 29°54' W 089°60'.

Length 14 m.

Type: Towing. MMSI: 367483050.

Date/timePositionNaut miles runAvg speedWind from/ knotsBaromVisibWave heightAir tempDewpointWater temp
2015-Mar-27 23:25N 29°54' W 089°60'5 0.1
2015-Mar-26 14:12N 29°54' W 090°05'30 1.8
2015-Mar-25 21:32N 29°34' W 090°30'5 3.5
2015-Mar-25 20:12N 29°35' W 090°35'2 3.4
2015-Mar-25 19:30N 29°35' W 090°38'3 3.5
2015-Mar-25 18:33N 29°37' W 090°42'3 2.7
2015-Mar-25 17:33N 29°34' W 090°43'3 3.1
2015-Mar-25 16:33N 29°32' W 090°46'4 4.1
2015-Mar-25 15:33N 29°32' W 090°50'  
2015-Mar-23 06:30N 29°32' W 090°51'5 4.9
2015-Mar-23 05:33N 29°32' W 090°46'3 3.4
2015-Mar-23 04:33N 29°34' W 090°43'3 2.8
2015-Mar-23 03:33N 29°37' W 090°42'0 0.0
2015-Mar-23 02:33N 29°37' W 090°42'0 0.0
2015-Mar-23 01:33N 29°37' W 090°42'0 0.0
2015-Mar-23 00:33N 29°37' W 090°42'0 0.0
2015-Mar-22 23:33N 29°37' W 090°42'0 0.0
2015-Mar-22 22:33N 29°37' W 090°42'0 0.0
2015-Mar-22 21:33N 29°37' W 090°42'0 0.0
2015-Mar-22 20:33N 29°37' W 090°42'0 0.0
2015-Mar-22 19:33N 29°37' W 090°42'0 0.0
2015-Mar-22 18:33N 29°37' W 090°42'0 0.0
2015-Mar-22 17:33N 29°37' W 090°42'0 0.1
2015-Mar-22 16:33N 29°37' W 090°42'1 1.4
2015-Mar-22 15:33N 29°36' W 090°41'4 4.4
2015-Mar-22 14:33N 29°35' W 090°36'31 3.7
2015-Mar-22 06:22N 29°48' W 090°04'  
2015-Mar-19 12:18N 29°54' W 090°05'0 0.0
2015-Mar-19 11:31N 29°54' W 090°05'0 0.0
2015-Mar-19 10:33N 29°54' W 090°05'0 0.0
2015-Mar-19 09:32N 29°54' W 090°05'5 2.1
2015-Mar-19 07:05N 29°55' W 089°59'  

Dump ship's entire track history